Time;durP1;ratioP1;P1;durP2;ratioP2;P2;SDS_P1;SDS_P2;PMS_P1;PMS_P2;Temp;Humidity;BMP_temperature;BMP_pressure;BME280_temperature;BME280_humidity;BME280_pressure;Samples;Min_cycle;Max_cycle;Signal;HPM_P1;HPM_P2
2022/08/30 00:01:29;;;;;;;;;7.75;4.00;;;;;23.26;38.52;101096.28;5098352;27;45421;-51
2022/08/30 00:03:55;;;;;;;;;6.20;4.20;;;;;23.04;38.88;101075.13;5079069;27;45818;-55
2022/08/30 00:06:21;;;;;;;;;4.75;4.75;;;;;23.09;38.83;101083.50;5096449;27;45369;-55
2022/08/30 00:08:49;;;;;;;;;2.40;2.40;;;;;23.22;38.21;101097.97;5079580;27;45357;-53
2022/08/30 00:11:17;;;;;;;;;3.00;3.00;;;;;23.27;38.06;101114.75;5079699;27;45551;-55
2022/08/30 00:13:43;;;;;;;;;3.60;3.60;;;;;23.19;38.37;101101.34;5079181;27;45728;-55
2022/08/30 00:16:09;;;;;;;;;4.40;4.40;;;;;23.20;38.46;101115.06;5062639;27;45591;-55
2022/08/30 00:18:34;;;;;;;;;3.25;3.25;;;;;23.11;38.51;101109.22;5097613;27;45292;-56
2022/08/30 00:21:00;;;;;;;;;5.25;5.00;;;;;23.11;38.45;101103.63;5097879;27;45522;-53
2022/08/30 00:23:25;;;;;;;;;4.00;3.00;;;;;23.08;38.59;101095.81;5079078;27;45746;-52
2022/08/30 00:25:51;;;;;;;;;3.75;2.25;;;;;23.12;38.57;101098.88;5097528;27;45701;-51
2022/08/30 00:28:16;;;;;;;;;4.25;4.25;;;;;22.96;38.45;101078.53;5079098;27;45394;-49
2022/08/30 00:30:42;;;;;;;;;3.75;3.75;;;;;22.94;38.27;101075.19;5097940;27;45598;-52
2022/08/30 00:33:08;;;;;;;;;4.25;3.00;;;;;23.06;38.74;101092.47;5079203;27;45418;-55
2022/08/30 00:35:34;;;;;;;;;3.60;3.20;;;;;23.04;38.82;101088.28;5078584;27;45323;-54
2022/08/30 00:37:59;;;;;;;;;4.75;4.00;;;;;22.95;38.68;101082.47;5095597;27;45425;-53
2022/08/30 00:40:25;;;;;;;;;5.75;5.00;;;;;22.86;38.95;101096.22;5097874;27;45428;-53
2022/08/30 00:42:51;;;;;;;;;4.00;4.00;;;;;22.72;39.40;101090.38;5097292;27;46370;-53
2022/08/30 00:45:23;;;;;;;;;7.25;6.00;;;;;22.74;39.34;101076.97;5078783;27;45348;-51
2022/08/30 00:47:48;;;;;;;;;5.80;3.60;;;;;22.84;39.19;101082.50;5096091;27;45436;-50
2022/08/30 00:50:15;;;;;;;;;5.00;4.00;;;;;22.86;38.73;101087.81;5078516;27;45354;-56
2022/08/30 00:52:42;;;;;;;;;7.00;4.60;;;;;22.68;39.02;101056.56;5095872;27;46739;-52
2022/08/30 00:55:08;;;;;;;;;4.80;4.00;;;;;22.83;38.86;101080.81;5078873;27;45429;-55
2022/08/30 00:57:34;;;;;;;;;6.25;3.25;;;;;22.75;39.31;101073.03;5092430;27;45380;-51
2022/08/30 01:00:00;;;;;;;;;3.60;3.40;;;;;22.82;39.37;101086.69;5079157;27;45445;-54
2022/08/30 01:02:25;;;;;;;;;6.00;4.00;;;;;22.93;39.22;101090.31;5095294;27;45443;-53
2022/08/30 01:04:51;;;;;;;;;5.75;4.00;;;;;22.79;39.26;101082.50;5078400;27;45314;-52
2022/08/30 01:07:17;;;;;;;;;4.00;3.00;;;;;22.66;39.37;101069.16;5078276;27;45395;-51
2022/08/30 01:09:43;;;;;;;;;4.60;3.80;;;;;22.66;39.01;101072.78;5095693;27;45392;-53
2022/08/30 01:12:08;;;;;;;;;7.50;6.00;;;;;22.78;39.85;101083.66;5077796;27;46552;-56
2022/08/30 01:14:34;;;;;;;;;7.00;5.00;;;;;22.61;39.75;101072.81;5078247;27;46011;-53
2022/08/30 01:17:02;;;;;;;;;5.00;4.00;;;;;22.64;39.48;101089.03;5095499;27;45377;-53
2022/08/30 01:19:31;;;;;;;;;5.40;4.00;;;;;22.59;39.63;101067.53;5078461;27;45342;-51
2022/08/30 01:22:00;;;;;;;;;3.40;3.40;;;;;22.75;39.53;101095.41;5096325;27;45968;-51
2022/08/30 01:24:26;;;;;;;;;5.60;5.40;;;;;22.67;39.68;101096.84;5095956;27;45297;-52
2022/08/30 01:26:51;;;;;;;;;6.00;6.00;;;;;22.51;39.91;101098.00;5078642;27;45298;-52
2022/08/30 01:29:19;;;;;;;;;4.00;4.00;;;;;22.67;39.85;101098.81;5097175;27;45398;-52
2022/08/30 01:31:45;;;;;;;;;3.60;3.00;;;;;22.65;39.77;101110.28;5095586;27;45806;-52
2022/08/30 01:34:11;;;;;;;;;4.75;3.75;;;;;22.49;39.89;101103.88;5096442;27;45212;-51
2022/08/30 01:36:37;;;;;;;;;3.80;3.80;;;;;22.54;40.14;101120.66;5095431;27;45964;-49
2022/08/30 01:39:03;;;;;;;;;6.00;3.80;;;;;22.42;39.73;101080.97;5061881;27;45617;-48
2022/08/30 01:41:31;;;;;;;;;5.25;5.25;;;;;22.60;39.93;101111.16;5048529;27;46687;-50
2022/08/30 01:43:58;;;;;;;;;3.80;2.80;;;;;22.64;39.76;101118.94;5077031;27;45398;-55
2022/08/30 01:46:25;;;;;;;;;4.60;4.20;;;;;22.56;39.94;101125.97;5077385;27;45355;-53
2022/08/30 01:48:52;;;;;;;;;4.20;4.20;;;;;22.61;39.79;101120.34;5096763;27;45129;-53
2022/08/30 01:51:18;;;;;;;;;5.80;4.40;;;;;22.60;39.72;101127.94;5078176;27;46084;-52
2022/08/30 01:53:43;;;;;;;;;5.00;3.75;;;;;22.61;39.67;101117.56;5096371;27;45284;-50
2022/08/30 01:56:09;;;;;;;;;4.75;4.75;;;;;22.54;39.48;101098.28;5096150;27;45419;-52
2022/08/30 01:58:35;;;;;;;;;7.50;4.00;;;;;22.53;40.08;101112.56;5078209;27;45394;-51
2022/08/30 02:01:02;;;;;;;;;4.00;4.00;;;;;22.40;40.08;101089.63;5098794;27;45485;-51
2022/08/30 02:03:31;;;;;;;;;3.80;3.80;;;;;22.48;40.21;101105.00;5081317;27;45257;-51
2022/08/30 02:06:01;;;;;;;;;4.00;3.00;;;;;22.48;39.86;101113.38;5100009;27;45331;-55
2022/08/30 02:08:27;;;;;;;;;2.80;2.80;;;;;22.42;40.43;101111.72;5081944;27;45354;-52
2022/08/30 02:10:52;;;;;;;;;7.00;4.00;;;;;22.40;40.70;101108.38;5099887;27;45780;-51
2022/08/30 02:13:17;;;;;;;;;3.00;3.00;;;;;22.47;40.45;101120.09;5099893;27;45321;-53
2022/08/30 02:15:43;;;;;;;;;4.75;4.75;;;;;22.42;40.22;101117.31;5099730;27;45319;-53
2022/08/30 02:18:09;;;;;;;;;6.50;4.00;;;;;22.25;40.46;101095.25;5081422;27;45374;-55
2022/08/30 02:20:37;;;;;;;;;6.60;4.00;;;;;22.43;40.03;101124.56;5081132;27;47833;-51
2022/08/30 02:23:02;;;;;;;;;9.00;4.60;;;;;22.38;40.43;101121.78;5099402;27;45409;-52
2022/08/30 02:25:28;;;;;;;;;5.50;4.50;;;;;22.34;40.31;101119.56;5080789;27;45472;-54
2022/08/30 02:27:53;;;;;;;;;4.50;4.00;;;;;22.26;40.65;101125.75;5099927;27;45361;-52
2022/08/30 02:30:19;;;;;;;;;4.75;4.75;;;;;22.19;40.77;101127.97;5099154;27;46443;-50
2022/08/30 02:32:44;;;;;;;;;5.75;5.00;;;;;22.24;41.06;101125.16;5099311;27;45337;-55
2022/08/30 02:35:10;;;;;;;;;7.00;5.00;;;;;22.14;41.64;101125.19;5081282;27;45359;-55
2022/08/30 02:37:35;;;;;;;;;4.50;4.00;;;;;22.02;41.88;101098.38;5099657;27;45388;-55
2022/08/30 02:40:01;;;;;;;;;4.25;4.00;;;;;22.16;42.29;101111.78;5099245;27;45689;-50
2022/08/30 02:42:26;;;;;;;;;3.25;2.50;;;;;21.91;42.59;101085.53;5098444;27;45934;-53
2022/08/30 02:44:52;;;;;;;;;7.25;5.75;;;;;22.17;41.99;101121.81;5097927;27;45402;-52
2022/08/30 02:47:17;;;;;;;;;6.75;5.00;;;;;22.21;41.94;101120.16;5099767;27;45298;-55
2022/08/30 02:49:42;;;;;;;;;6.00;5.25;;;;;22.28;41.77;101126.28;5099089;27;46638;-53
2022/08/30 02:52:08;;;;;;;;;3.00;3.00;;;;;22.19;41.60;101128.81;5098850;27;45299;-51
2022/08/30 02:54:34;;;;;;;;;2.75;2.75;;;;;21.88;41.91;101092.50;5099054;27;45164;-53
2022/08/30 02:57:03;;;;;;;;;5.00;4.00;;;;;21.99;41.64;101112.88;5106005;27;45388;-51
2022/08/30 02:59:29;;;;;;;;;4.80;4.00;;;;;22.06;41.86;101124.66;5101666;27;45900;-54
2022/08/30 03:01:54;;;;;;;;;4.00;4.00;;;;;22.07;42.98;101120.72;5084432;27;45451;-50
2022/08/30 03:04:20;;;;;;;;;7.75;7.75;;;;;21.80;44.43;101101.47;5101372;27;45352;-51
2022/08/30 03:06:45;;;;;;;;;7.25;6.50;;;;;21.62;46.43;101116.78;5119476;27;45270;-53
2022/08/30 03:09:11;;;;;;;;;5.75;4.25;;;;;21.35;48.30;101115.88;5101166;27;46005;-54
2022/08/30 03:11:36;;;;;;;;;5.25;5.25;;;;;21.10;49.96;101113.88;5118661;27;45435;-54
2022/08/30 03:14:02;;;;;;;;;5.00;5.00;;;;;21.17;51.14;101142.38;5119568;27;45446;-57
2022/08/30 03:16:28;;;;;;;;;7.25;5.50;;;;;21.19;51.71;101126.19;5117988;27;45574;-55
2022/08/30 03:18:53;;;;;;;;;7.75;6.75;;;;;21.35;51.33;101131.81;5119210;27;45788;-52
2022/08/30 03:21:18;;;;;;;;;4.25;4.25;;;;;21.23;51.28;101140.41;5119230;27;45313;-50
2022/08/30 03:23:44;;;;;;;;;6.50;6.25;;;;;20.92;52.86;101131.97;5118898;27;45356;-53
2022/08/30 03:26:11;;;;;;;;;7.00;7.00;;;;;20.66;53.69;101095.56;5100628;27;45555;-52
2022/08/30 03:28:37;;;;;;;;;4.40;4.40;;;;;20.69;53.43;101125.69;5118663;27;45590;-51
2022/08/30 03:31:03;;;;;;;;;7.00;6.00;;;;;20.60;54.09;101103.06;5100479;27;45525;-51
2022/08/30 03:33:28;;;;;;;;;8.00;5.75;;;;;20.56;54.64;101087.97;5118587;27;45541;-51
2022/08/30 03:35:54;;;;;;;;;5.50;5.50;;;;;20.38;55.18;101058.63;5119364;27;45376;-54
2022/08/30 03:38:19;;;;;;;;;7.00;6.00;;;;;20.39;55.37;101063.91;5118673;27;45393;-53
2022/08/30 03:40:45;;;;;;;;;7.00;7.00;;;;;20.35;55.41;101048.00;5099824;27;45420;-51
2022/08/30 03:43:10;;;;;;;;;9.75;7.25;;;;;20.21;54.96;101050.47;5118989;27;45385;-55
2022/08/30 03:45:36;;;;;;;;;9.00;7.25;;;;;20.16;55.20;101048.44;5100342;27;45334;-52
2022/08/30 03:48:02;;;;;;;;;6.50;6.00;;;;;20.16;55.45;101057.66;5100119;27;45787;-55
2022/08/30 03:50:28;;;;;;;;;5.50;5.25;;;;;20.17;55.01;101064.09;5118277;27;45298;-51
2022/08/30 03:52:53;;;;;;;;;5.00;3.50;;;;;20.24;55.39;101061.91;5118519;27;45335;-53
2022/08/30 03:55:19;;;;;;;;;6.75;6.25;;;;;20.26;55.50;101059.66;5083109;27;45595;-52
2022/08/30 03:57:45;;;;;;;;;6.00;6.00;;;;;20.30;54.53;101058.03;5106685;27;46384;-54
2022/08/30 04:00:11;;;;;;;;;10.25;9.25;;;;;20.09;54.94;101023.63;5097856;27;45372;-55
2022/08/30 04:02:36;;;;;;;;;7.80;4.80;;;;;20.13;54.80;101024.75;5079652;27;45255;-54
2022/08/30 04:05:02;;;;;;;;;6.00;6.00;;;;;20.34;54.64;101049.97;5096347;27;45596;-51
2022/08/30 04:07:28;;;;;;;;;5.00;5.00;;;;;20.50;54.44;101047.25;5079049;27;47591;-54
2022/08/30 04:09:53;;;;;;;;;6.00;5.25;;;;;20.28;54.51;101020.41;5070757;27;46006;-53
2022/08/30 04:12:19;;;;;;;;;6.50;6.50;;;;;20.30;54.20;101023.75;5091017;27;45414;-56
2022/08/30 04:14:44;;;;;;;;;6.50;5.00;;;;;20.36;54.27;101044.09;5097595;27;45291;-52
2022/08/30 04:17:10;;;;;;;;;1.75;0.75;;;;;20.36;53.86;101052.47;5097580;27;46459;-54
2022/08/30 04:19:35;;;;;;;;;6.00;5.00;;;;;20.23;53.77;101037.09;5079032;27;45373;-49
2022/08/30 04:22:01;;;;;;;;;7.75;5.75;;;;;20.43;53.55;101053.91;5079345;27;45408;-50
2022/08/30 04:24:26;;;;;;;;;4.75;4.75;;;;;20.14;53.58;101023.66;5062139;27;45524;-49
2022/08/30 04:26:51;;;;;;;;;7.00;6.00;;;;;20.06;53.12;101013.00;5062292;27;45842;-53
2022/08/30 04:29:17;;;;;;;;;7.75;6.25;;;;;20.16;53.56;101043.72;5097779;27;45368;-51
2022/08/30 04:31:43;;;;;;;;;6.75;5.00;;;;;20.37;53.58;101043.84;5097348;27;45388;-54
2022/08/30 04:34:10;;;;;;;;;9.80;6.60;;;;;20.43;53.98;101047.47;5097038;27;45321;-51
2022/08/30 04:36:35;;;;;;;;;6.80;5.00;;;;;20.52;53.15;101043.09;5097200;27;45408;-52
2022/08/30 04:39:01;;;;;;;;;6.75;4.25;;;;;20.63;52.07;101045.91;5079298;27;45355;-51
2022/08/30 04:41:26;;;;;;;;;6.50;6.50;;;;;20.73;52.34;101051.53;5097208;27;45358;-50
2022/08/30 04:43:51;;;;;;;;;7.25;7.25;;;;;20.82;52.02;101060.19;5096275;27;45550;-50
2022/08/30 04:46:17;;;;;;;;;7.75;6.00;;;;;20.71;51.79;101059.34;5078823;27;46863;-51
2022/08/30 04:48:43;;;;;;;;;7.00;7.00;;;;;20.58;52.70;101053.16;5095367;27;45998;-53
2022/08/30 04:51:12;;;;;;;;;6.60;6.60;;;;;20.70;51.80;101055.69;5079160;27;45417;-52
2022/08/30 04:53:38;;;;;;;;;5.80;5.60;;;;;20.62;51.96;101031.13;5062895;27;45658;-53
2022/08/30 04:56:11;;;;;;;;;5.00;5.00;;;;;20.78;51.60;101061.84;5078616;27;45287;-53
2022/08/30 04:58:37;;;;;;;;;7.20;6.00;;;;;20.60;51.82;101033.38;5082044;27;45417;-50
2022/08/30 05:01:02;;;;;;;;;6.25;5.50;;;;;20.72;51.46;101056.25;5082020;27;45455;-53
2022/08/30 05:03:28;;;;;;;;;7.25;5.50;;;;;20.53;51.79;101035.53;5099391;27;45359;-50
2022/08/30 05:05:53;;;;;;;;;4.50;4.50;;;;;20.54;51.90;101046.44;5117452;27;46466;-54
2022/08/30 05:08:19;;;;;;;;;5.75;5.00;;;;;20.51;52.27;101046.97;5116275;27;45369;-54
2022/08/30 05:10:47;;;;;;;;;9.80;7.00;;;;;20.43;52.09;101056.69;5099132;27;45436;-52
2022/08/30 05:13:13;;;;;;;;;7.60;6.40;;;;;20.43;52.13;101056.69;5085260;27;45725;-54
2022/08/30 05:15:39;;;;;;;;;8.80;6.20;;;;;20.43;51.79;101058.63;5076446;27;45528;-49
2022/08/30 05:18:06;;;;;;;;;10.75;7.25;;;;;20.54;51.50;101067.91;5115221;27;45630;-54
2022/08/30 05:20:32;;;;;;;;;5.00;4.60;;;;;20.42;51.97;101041.09;5079140;27;45422;-49
2022/08/30 05:22:57;;;;;;;;;6.00;5.00;;;;;20.56;51.73;101068.47;5117607;27;45543;-54
2022/08/30 05:25:25;;;;;;;;;6.50;5.75;;;;;20.55;51.38;101064.00;5117055;27;45471;-52
2022/08/30 05:27:51;;;;;;;;;6.60;5.20;;;;;20.49;51.28;101065.91;5115356;27;45435;-53
2022/08/30 05:30:17;;;;;;;;;6.75;5.75;;;;;20.45;51.12;101085.13;5082219;27;45873;-55
2022/08/30 05:32:42;;;;;;;;;7.25;5.75;;;;;20.58;50.77;101082.97;5116143;27;45678;-55
2022/08/30 05:35:09;;;;;;;;;6.00;5.50;;;;;20.60;50.82;101077.97;5116459;27;46477;-51
2022/08/30 05:37:34;;;;;;;;;6.40;6.20;;;;;20.44;50.73;101057.53;5116844;27;45388;-50
2022/08/30 05:40:00;;;;;;;;;7.00;5.00;;;;;20.57;50.80;101086.88;5117134;27;45379;-51
2022/08/30 05:42:25;;;;;;;;;8.00;5.75;;;;;20.54;50.36;101087.44;5098738;27;45439;-52
2022/08/30 05:44:52;;;;;;;;;7.25;7.25;;;;;20.63;50.43;101084.94;5116946;27;46690;-51
2022/08/30 05:47:18;;;;;;;;;5.20;5.20;;;;;20.63;50.78;101077.41;5081431;27;45329;-56
2022/08/30 05:49:43;;;;;;;;;8.40;5.80;;;;;20.80;50.14;101096.72;5098400;27;45272;-56
2022/08/30 05:52:09;;;;;;;;;8.75;8.50;;;;;20.86;50.18;101094.81;5117107;27;45598;-52
2022/08/30 05:54:34;;;;;;;;;6.00;5.50;;;;;20.78;50.17;101076.66;5116733;27;45588;-52
2022/08/30 05:56:59;;;;;;;;;11.25;7.75;;;;;20.99;49.81;101097.09;5114238;27;45443;-52
2022/08/30 05:59:25;;;;;;;;;8.00;6.00;;;;;21.03;49.71;101100.19;5095530;27;45404;-52
2022/08/30 06:01:50;;;;;;;;;6.00;5.25;;;;;20.94;49.79;101082.31;5096456;27;45500;-51
2022/08/30 06:04:16;;;;;;;;;6.00;5.50;;;;;20.92;49.84;101096.50;5077375;27;45806;-51
2022/08/30 06:06:42;;;;;;;;;9.50;6.50;;;;;20.87;49.57;101092.88;5077515;27;45707;-54
2022/08/30 06:09:08;;;;;;;;;12.75;7.00;;;;;20.75;49.88;101090.31;5096304;27;45286;-50
2022/08/30 06:11:34;;;;;;;;;5.00;5.00;;;;;20.81;49.46;101086.44;5077828;27;45551;-51
2022/08/30 06:13:59;;;;;;;;;6.50;6.25;;;;;20.86;49.09;101092.03;5095811;27;46482;-51
2022/08/30 06:16:25;;;;;;;;;5.50;5.50;;;;;20.75;49.18;101085.53;5093991;27;45454;-54
2022/08/30 06:18:51;;;;;;;;;4.20;4.00;;;;;20.68;49.07;101071.00;5077789;27;45465;-51
2022/08/30 06:21:23;;;;;;;;;9.25;8.00;;;;;20.88;48.59;101095.41;5096263;27;45506;-51
2022/08/30 06:23:48;;;;;;;;;8.00;7.00;;;;;20.83;49.08;101098.13;5075755;27;46160;-50
2022/08/30 06:26:14;;;;;;;;;7.75;6.00;;;;;20.74;49.14;101099.78;5057421;28;45591;-54
2022/08/30 06:28:39;;;;;;;;;10.25;9.00;;;;;20.78;49.24;101090.59;5074739;27;45455;-50
2022/08/30 06:31:06;;;;;;;;;9.25;7.25;;;;;20.77;48.70;101077.75;5057039;28;45820;-55
2022/08/30 06:33:32;;;;;;;;;5.80;5.80;;;;;20.83;49.49;101093.41;5056848;28;46517;-55
2022/08/30 06:36:04;;;;;;;;;8.00;7.00;;;;;20.80;48.69;101084.72;5069734;27;45443;-51
2022/08/30 06:38:30;;;;;;;;;7.00;6.80;;;;;20.99;48.58;101108.25;5095357;27;45377;-51
2022/08/30 06:40:55;;;;;;;;;9.50;8.00;;;;;20.92;48.02;101084.53;5077750;27;45910;-53
2022/08/30 06:43:21;;;;;;;;;6.75;5.75;;;;;21.11;47.98;101105.25;5077423;27;45355;-53
2022/08/30 06:45:46;;;;;;;;;6.00;5.00;;;;;21.15;47.89;101096.31;5095316;27;45283;-50
2022/08/30 06:48:12;;;;;;;;;8.00;8.00;;;;;21.08;48.03;101094.63;5098208;27;45350;-52
2022/08/30 06:50:37;;;;;;;;;11.75;6.75;;;;;20.95;48.06;101107.16;5080980;27;45394;-54
2022/08/30 06:53:04;;;;;;;;;7.00;7.00;;;;;20.80;48.61;101076.34;5080375;27;46099;-55
2022/08/30 06:55:32;;;;;;;;;4.00;4.00;;;;;20.95;48.61;101084.81;5098866;27;45384;-55
2022/08/30 06:57:59;;;;;;;;;10.80;8.00;;;;;21.15;48.03;101113.06;5088794;27;45323;-55
2022/08/30 07:00:24;;;;;;;;;6.00;6.00;;;;;21.05;47.70;101086.81;5078274;28;45408;-55
2022/08/30 07:02:50;;;;;;;;;8.75;6.75;;;;;20.98;48.22;101089.84;5060396;28;45470;-53
2022/08/30 07:05:16;;;;;;;;;8.50;8.50;;;;;21.12;47.98;101109.72;5078382;28;45314;-51
2022/08/30 07:07:42;;;;;;;;;10.80;8.80;;;;;21.13;48.46;101118.91;5059905;28;45311;-53
2022/08/30 07:10:08;;;;;;;;;9.00;7.00;;;;;21.17;48.10;101111.66;5060534;28;45285;-54
2022/08/30 07:12:34;;;;;;;;;6.50;6.25;;;;;21.20;48.14;101110.28;5060023;28;45277;-53
2022/08/30 07:15:04;;;;;;;;;11.00;9.00;;;;;21.24;47.78;101115.03;5077290;28;45388;-54
2022/08/30 07:20:13;;;;;;;;;8.00;6.80;;;;;21.19;47.86;101103.84;5050217;27;45940;-50
2022/08/30 07:22:38;;;;;;;;;12.00;8.00;;;;;21.37;47.54;101113.69;5076030;27;47320;-53
2022/08/30 07:25:04;;;;;;;;;9.25;9.25;;;;;21.38;47.53;101120.09;5085711;27;45520;-52
2022/08/30 07:27:30;;;;;;;;;5.00;5.00;;;;;21.36;47.14;101113.94;5093298;27;45733;-51
2022/08/30 07:29:57;;;;;;;;;11.25;7.50;;;;;21.36;47.42;101098.03;5075515;27;45440;-51
2022/08/30 07:32:23;;;;;;;;;11.60;10.20;;;;;21.43;47.29;101102.50;5092367;27;45676;-54
2022/08/30 07:34:48;;;;;;;;;9.50;6.00;;;;;21.34;47.81;101114.22;5058526;27;45382;-59
2022/08/30 07:37:14;;;;;;;;;10.25;8.75;;;;;21.35;47.75;101120.66;5078024;27;45520;-58
2022/08/30 07:39:39;;;;;;;;;10.50;10.50;;;;;21.48;47.83;101114.53;5098740;27;45455;-56
2022/08/30 07:42:05;;;;;;;;;15.75;13.75;;;;;21.46;47.58;101116.75;5083095;27;46802;-53
2022/08/30 07:44:31;;;;;;;;;10.50;8.50;;;;;21.50;47.60;101111.47;5099579;27;45410;-55
2022/08/30 07:46:56;;;;;;;;;9.75;9.75;;;;;21.57;47.38;101111.19;5057772;27;46094;-51
2022/08/30 07:49:22;;;;;;;;;10.00;10.00;;;;;21.66;47.24;101112.31;5097055;27;45724;-55
2022/08/30 07:51:47;;;;;;;;;9.00;8.00;;;;;21.65;47.26;101119.00;5092712;27;46106;-53
2022/08/30 07:54:13;;;;;;;;;10.00;10.00;;;;;21.71;47.40;101112.34;5091331;27;45969;-54
2022/08/30 07:56:38;;;;;;;;;11.75;9.00;;;;;21.74;47.29;101122.97;5074028;27;45436;-49
2022/08/30 07:59:04;;;;;;;;;8.50;8.50;;;;;21.67;46.85;101106.44;5112877;27;45556;-51
2022/08/30 08:01:29;;;;;;;;;11.25;8.75;;;;;21.83;46.83;101130.78;5113347;27;45504;-50
2022/08/30 08:03:55;;;;;;;;;10.00;10.00;;;;;21.90;46.80;101137.78;5112602;27;45383;-55
2022/08/30 08:06:21;;;;;;;;;8.50;7.75;;;;;21.87;46.73;101129.94;5113672;27;45633;-54
2022/08/30 08:08:47;;;;;;;;;6.40;5.20;;;;;21.83;46.69;101130.78;5107419;27;45509;-51
2022/08/30 08:11:16;;;;;;;;;12.25;9.75;;;;;21.86;47.17;101128.28;5065969;27;46259;-50
2022/08/30 08:13:42;;;;;;;;;9.60;8.20;;;;;21.96;46.82;101130.22;5057263;27;45413;-54
2022/08/30 08:16:08;;;;;;;;;12.20;9.40;;;;;21.79;47.08;101108.16;5109231;27;45803;-51
2022/08/30 08:18:33;;;;;;;;;7.75;7.75;;;;;21.92;47.10;101135.53;5112529;27;45352;-54
2022/08/30 08:20:59;;;;;;;;;12.75;11.25;;;;;21.99;46.95;101135.25;5075295;27;45850;-54
2022/08/30 08:23:24;;;;;;;;;9.60;7.40;;;;;22.03;46.94;101136.38;5112509;27;45357;-53
2022/08/30 08:25:50;;;;;;;;;7.00;5.00;;;;;22.12;46.41;101141.38;5074606;27;45958;-52
2022/08/30 08:28:15;;;;;;;;;10.25;8.00;;;;;22.15;46.24;101138.06;5070821;27;45467;-52
2022/08/30 08:30:41;;;;;;;;;11.00;8.75;;;;;22.06;46.47;101126.59;5087069;27;46963;-60
2022/08/30 08:33:06;;;;;;;;;12.25;8.25;;;;;22.28;46.48;101147.81;5072367;27;45587;-53
2022/08/30 08:35:32;;;;;;;;;11.50;11.25;;;;;22.29;45.96;101153.13;5073625;27;45573;-58
2022/08/30 08:37:58;;;;;;;;;7.25;7.25;;;;;22.31;46.06;101156.47;5069742;27;45436;-57
2022/08/30 08:40:23;;;;;;;;;9.25;9.25;;;;;22.29;46.06;101149.47;5092451;27;45417;-58
2022/08/30 08:42:59;;;;;;;;;14.00;13.00;;;;;22.37;45.97;101162.06;5057590;27;45469;-57
2022/08/30 08:45:37;;;;;;;;;11.80;9.80;;;;;22.25;46.28;101138.03;5091400;27;45497;-56
2022/08/30 08:48:06;;;;;;;;;13.00;11.20;;;;;22.44;45.75;101137.44;5074108;27;45532;-59
2022/08/30 08:50:31;;;;;;;;;11.00;9.20;;;;;22.44;45.62;101118.72;5074655;27;45559;-55
2022/08/30 08:55:54;;;;;;;;;11.60;10.40;;;;;22.67;45.23;101129.59;5062768;27;45728;-59
2022/08/30 08:58:28;;;;;;;;;8.50;8.50;;;;;22.85;45.50;101162.50;5069464;28;45862;-56
2022/08/30 09:00:55;;;;;;;;;9.80;9.20;;;;;22.90;44.94;101158.03;5053389;28;45908;-55
2022/08/30 09:03:21;;;;;;;;;10.60;9.80;;;;;23.12;44.38;101180.06;5053770;28;45807;-53
2022/08/30 09:05:47;;;;;;;;;11.80;9.40;;;;;22.97;44.23;101151.00;5072124;28;45358;-56
2022/08/30 09:08:13;;;;;;;;;9.75;9.25;;;;;23.17;44.55;101174.44;5037092;28;45456;-55
2022/08/30 09:10:40;;;;;;;;;9.20;9.00;;;;;23.24;44.58;101162.91;5065417;27;45581;-55
2022/08/30 09:13:05;;;;;;;;;7.60;7.60;;;;;23.46;44.42;101172.91;5057000;27;45870;-57
2022/08/30 09:15:32;;;;;;;;;11.00;10.50;;;;;23.61;43.81;101169.16;5056928;27;45405;-55
2022/08/30 09:18:00;;;;;;;;;10.00;8.40;;;;;23.70;43.60;101170.25;5088392;27;45967;-58
2022/08/30 09:20:40;;;;;;;;;6.60;6.60;;;;;23.64;44.04;101172.22;5030625;27;46548;-54
2022/08/30 09:23:14;;;;;;;;;13.60;10.20;;;;;23.40;43.84;101155.31;5044442;28;45479;-55
2022/08/30 09:25:58;;;;;;;;;9.00;8.00;;;;;23.23;44.68;101153.69;5096152;27;45474;-58
2022/08/30 09:28:26;;;;;;;;;11.40;10.60;;;;;23.46;43.94;101175.69;5094953;27;45423;-54
2022/08/30 09:31:19;;;;;;;;;13.60;9.00;;;;;23.46;44.63;101176.53;5089426;27;45941;-57
2022/08/30 09:34:02;;;;;;;;;13.20;9.60;;;;;23.58;44.16;101156.56;5091326;27;45401;-54
2022/08/30 09:36:50;;;;;;;;;13.40;11.40;;;;;23.88;43.36;101179.06;5092623;27;45446;-55
2022/08/30 09:39:24;;;;;;;;;10.00;9.20;;;;;24.01;43.35;101186.00;5094132;27;45497;-52
2022/08/30 09:41:50;;;;;;;;;9.60;9.20;;;;;24.08;43.29;101183.72;5112644;27;47178;-55
2022/08/30 09:44:24;;;;;;;;;10.25;10.25;;;;;24.05;43.53;101184.25;5094195;27;45449;-53
2022/08/30 09:46:53;;;;;;;;;13.00;10.80;;;;;24.07;43.15;101182.03;5095063;27;45522;-58
2022/08/30 09:49:55;;;;;;;;;15.20;11.80;;;;;24.21;43.40;101185.00;5074067;27;45587;-58
2022/08/30 09:52:32;;;;;;;;;11.40;10.80;;;;;24.32;42.88;101185.72;5040873;27;46561;-56
2022/08/30 09:55:07;;;;;;;;;10.00;9.40;;;;;24.38;43.03;101184.56;5092005;27;45400;-56
2022/08/30 09:58:00;;;;;;;;;11.20;10.00;;;;;24.33;42.70;101184.63;5091898;27;45488;-59
2022/08/30 10:00:30;;;;;;;;;13.20;8.40;;;;;24.28;43.02;101176.25;5112637;27;45821;-54
2022/08/30 10:03:23;;;;;;;;;11.60;9.40;;;;;24.42;42.40;101190.41;5094416;27;46406;-57
2022/08/30 10:06:03;;;;;;;;;13.20;12.00;;;;;24.54;42.76;101182.44;5093847;27;45420;-55
2022/08/30 10:08:40;;;;;;;;;14.80;11.40;;;;;24.60;42.61;101202.88;5094104;27;45485;-57
2022/08/30 10:11:18;;;;;;;;;11.00;9.20;;;;;24.63;42.25;101188.22;5076795;27;45419;-54
2022/08/30 10:14:00;;;;;;;;;11.60;10.60;;;;;24.47;41.81;101157.56;5091335;27;45453;-57
2022/08/30 10:16:50;;;;;;;;;9.40;8.80;;;;;24.76;42.32;101186.72;5057841;27;45409;-55
2022/08/30 10:19:28;;;;;;;;;12.40;11.60;;;;;24.89;41.31;101180.41;5074182;27;45600;-55
2022/08/30 10:22:04;;;;;;;;;13.00;11.00;;;;;24.97;41.34;101175.28;5056586;27;47571;-55
2022/08/30 10:24:45;;;;;;;;;13.40;10.20;;;;;25.09;41.14;101186.91;5050267;28;46466;-58
2022/08/30 10:27:20;;;;;;;;;11.40;11.40;;;;;25.04;40.95;101179.34;5056209;28;45822;-55
2022/08/30 10:29:48;;;;;;;;;11.20;9.80;;;;;25.10;41.82;101184.91;5056430;28;45346;-55
2022/08/30 10:32:29;;;;;;;;;10.20;10.20;;;;;25.04;42.29;101161.69;5074605;28;45600;-55
2022/08/30 10:35:21;;;;;;;;;12.60;10.40;;;;;25.19;41.73;101185.94;5055614;28;46710;-54
2022/08/30 10:37:53;;;;;;;;;12.40;11.20;;;;;25.02;41.61;101169.56;5055904;27;45758;-57
2022/08/30 10:43:45;;;;;;;;;12.20;10.00;;;;;25.15;41.64;101199.75;5095339;27;45398;-58
2022/08/30 10:46:15;;;;;;;;;17.40;16.00;;;;;25.04;41.41;101182.16;5058902;27;48606;-56
2022/08/30 10:48:42;;;;;;;;;11.80;8.80;;;;;25.06;41.89;101183.88;5059380;27;45435;-54
2022/08/30 10:51:14;;;;;;;;;14.00;11.20;;;;;24.86;41.68;101161.34;5076363;27;45409;-58
2022/08/30 10:53:47;;;;;;;;;10.60;9.00;;;;;25.00;41.97;101178.31;5076407;27;45499;-54
2022/08/30 10:56:19;;;;;;;;;11.60;10.20;;;;;25.01;41.73;101193.16;5076140;27;46498;-54
2022/08/30 10:58:44;;;;;;;;;11.20;11.20;;;;;24.92;42.23;101178.13;5054890;28;45951;-55
2022/08/30 11:01:41;;;;;;;;;12.25;12.00;;;;;25.04;41.81;101189.78;5055886;28;45385;-56
2022/08/30 11:04:22;;;;;;;;;11.60;11.60;;;;;25.03;41.91;101200.16;5074138;28;45829;-55
2022/08/30 11:07:06;;;;;;;;;14.60;11.00;;;;;25.09;42.35;101192.53;5073739;28;47029;-57
2022/08/30 11:09:43;;;;;;;;;10.20;9.20;;;;;25.06;41.96;101186.66;5074054;28;45369;-52
2022/08/30 11:12:21;;;;;;;;;13.00;10.20;;;;;25.13;41.97;101193.56;5070102;28;45429;-55
2022/08/30 11:14:47;;;;;;;;;12.80;11.80;;;;;25.13;41.86;101175.91;5065375;28;45425;-52
2022/08/30 11:17:28;;;;;;;;;12.25;10.50;;;;;25.21;41.80;101183.66;5073694;28;46997;-56
2022/08/30 11:19:55;;;;;;;;;9.40;8.20;;;;;25.31;42.25;101183.50;5050072;27;45775;-56
2022/08/30 11:22:27;;;;;;;;;12.80;12.40;;;;;25.25;42.09;101190.34;5074457;27;45618;-54
2022/08/30 11:25:01;;;;;;;;;13.00;12.60;;;;;25.11;42.23;101189.41;5064609;28;45536;-53
2022/08/30 11:27:44;;;;;;;;;9.80;9.80;;;;;25.19;42.60;101194.38;5073604;27;45747;-55
2022/08/30 11:30:24;;;;;;;;;13.40;12.60;;;;;25.27;42.27;101187.22;5060866;28;45723;-57
2022/08/30 11:33:10;;;;;;;;;15.20;13.80;;;;;25.22;42.06;101184.47;5072476;28;45513;-56
2022/08/30 11:35:39;;;;;;;;;14.80;12.00;;;;;25.24;42.04;101185.84;5056067;28;45845;-55